Detall de PIREP

Printer-friendly versionPDF version

[2012/11/27 08:53:00]
Flight IATA:CT1005
Pilot Number:011
Company ICAO:CAT
Aircraft Type:F28/A
PAX:85
Departing Airport: EPGD
Destination Airport: LKKV
Alternate Airport:LKPR
Online: VATSIM
Route:LODNI UP733 TOMTI UN869 KONAR
Flight Level:F270
No Slew and time accel
No pause
Crash detect
Detect pilot in Cockpit between each 30 and 45 minutes
08:53 Zero fuel Weight: 59157 Lbs, Fuel Weight: 11421 Lbs
08:53 VATSIM:EPGD 270830Z 18003KT 140V220 1200 R29/1800 BR BKN003 05/05 Q1005
08:53 VATSIM:LKKV 270830Z 00000KT 2200 BR SCT003 OVC006 04/04 Q1006
08:54 Parking Brakes off
09:06 Take-off
09:06 Take off Weight: 70115 Lbs
09:06 Wind: 177º @ 003 Knots Heading: 114º
09:06 POS N54º 22´ 32´´ E018º 28´ 25´´
09:06 Gear Up: 151 Knots
09:06 Flaps:3 at 151 Knots
09:07 Flaps:2 at 156 Knots
09:07 Flaps:1 at 163 Knots
09:07 Flaps:0 at 167 Knots
09:20 TOC
09:20 Fuel Weight: 9077 Lb
09:21 Wind:189º@012 Knots Heading: 215º Ground Speed: 353 Knots Altitude 26755 ft
09:36 Wind:205º@014 Knots Heading: 219º Ground Speed: 417 Knots Altitude 26804 ft
09:51 Wind:154º@010 Knots Heading: 249º Ground Speed: 436 Knots Altitude 26742 ft
09:51 TOD
09:51 Fuel Weight: 6637 Lb
10:06 Wind:206º@001 Knots Heading: 128º Ground Speed: 276 Knots Altitude 5856 ft
10:07 Flaps:1 at 225 Knots
10:08 Flaps:2 at 206 Knots
10:09 Flaps:3 at 182 Knots
10:09 Gear Down: 181 Knots
10:09 Flaps:4 at 166 Knots
10:11 Flaps:5 at 152 Knots
10:12 TouchDown:Rate -206 ft/min Speed: 107 Knots
10:12 VATSIM:LKKV 271000Z VRB02KT 1000 R29/1400V2000D -RA BR BCFG BKN001 OVC003 05/04 Q1006
10:12 Land
10:12 Wind:210º@001 Knots
10:12 Heading: 292º
10:12 Flight Duration: 01:06
10:12 Landing Weight: 64762 Lbs
10:12 POS N50º 12´ 09´´ E012º 54´ 58´´
10:13 Parking brakes on
10:13 Block toBlock Duration: 01:19
10:13 Final Fuel: 5562 Lbls
10:13 Spent Fuel: 5859 Lbls
10:13 Flight Length: 64 NM
10:13 TOD Land Length: 54 NM

Exportar CSV

Powered by Drupal - Modified by Danger4k